createdAt,value
2019-05-25T00:00:30.771Z,23.20
2019-05-25T00:03:00.307Z,22.55
2019-05-25T00:05:29.695Z,21.75
2019-05-25T00:07:59.133Z,22.52
2019-05-25T00:10:28.594Z,23.10
2019-05-25T00:12:58.036Z,21.25
2019-05-25T00:15:27.478Z,22.30
2019-05-25T00:17:56.853Z,23.22
2019-05-25T00:20:26.247Z,23.50
2019-05-25T00:22:55.679Z,23.47
2019-05-25T00:25:25.051Z,22.52
2019-05-25T00:27:54.422Z,24.05
2019-05-25T00:30:23.783Z,24.37
2019-05-25T00:32:53.166Z,24.05
2019-05-25T00:35:22.542Z,22.67
2019-05-25T00:37:51.994Z,21.27
2019-05-25T00:40:21.345Z,20.95
2019-05-25T00:42:50.835Z,22.25
2019-05-25T00:45:20.212Z,22.50
2019-05-25T00:47:49.653Z,22.67
2019-05-25T00:50:19.015Z,23.62
2019-05-25T00:52:48.455Z,23.27
2019-05-25T00:55:17.875Z,22.07
2019-05-25T00:57:47.325Z,22.37
2019-05-25T01:00:16.778Z,20.62
2019-05-25T01:02:46.177Z,19.95
2019-05-25T01:05:15.550Z,22.05
2019-05-25T01:07:44.917Z,21.15
2019-05-25T01:10:15.452Z,23.15
2019-05-25T01:12:44.908Z,20.72
2019-05-25T01:15:15.244Z,20.55
2019-05-25T01:17:44.605Z,21.87
2019-05-25T01:20:15.263Z,19.75
2019-05-25T01:22:44.722Z,18.50
2019-05-25T01:25:14.962Z,18.27
2019-05-25T01:27:44.425Z,18.35
2019-05-25T01:30:14.589Z,18.52
2019-05-25T01:32:44.042Z,19.52
2019-05-25T01:35:13.678Z,16.27
2019-05-25T01:37:43.061Z,17.75
2019-05-25T01:40:12.838Z,19.77
2019-05-25T01:42:42.279Z,16.10
2019-05-25T01:45:11.948Z,16.57
2019-05-25T01:47:41.381Z,16.48
2019-05-25T01:50:10.854Z,16.57
2019-05-25T01:52:40.317Z,16.35
2019-05-25T01:55:09.845Z,16.60
2019-05-25T01:57:39.309Z,15.32
2019-05-25T02:00:09.454Z,15.83
2019-05-25T02:02:38.815Z,16.70
2019-05-25T02:05:08.698Z,17.42
2019-05-25T02:07:38.141Z,15.55
2019-05-25T02:10:08.685Z,16.07
2019-05-25T02:12:38.113Z,16.37
2019-05-25T02:15:08.650Z,16.73
2019-05-25T02:17:38.095Z,15.78
2019-05-25T02:20:07.873Z,17.25
2019-05-25T02:22:37.306Z,16.48
2019-05-25T02:25:17.469Z,17.67
2019-05-25T02:27:38.750Z,16.85
2019-05-25T02:30:09.937Z,16.67
2019-05-25T02:32:39.308Z,15.18
2019-05-25T02:35:09.292Z,15.65
2019-05-25T02:37:38.738Z,14.23
2019-05-25T02:40:08.714Z,14.85
2019-05-25T02:42:38.142Z,13.90
2019-05-25T02:45:07.763Z,15.50
2019-05-25T02:47:37.214Z,15.80
2019-05-25T02:50:08.021Z,16.35
2019-05-25T02:52:37.498Z,17.12
2019-05-25T02:55:09.896Z,17.62
2019-05-25T02:57:39.378Z,18.17
2019-05-25T03:00:10.838Z,17.92
2019-05-25T03:02:40.521Z,18.80
2019-05-25T03:05:11.869Z,18.23
2019-05-25T03:07:43.542Z,17.30
2019-05-25T03:10:14.188Z,17.27
2019-05-25T03:12:44.780Z,19.17
2019-05-25T03:15:14.909Z,16.70
2019-05-25T03:17:44.289Z,17.00
2019-05-25T03:20:13.923Z,18.15
2019-05-25T03:22:43.375Z,16.48
2019-05-25T03:25:13.740Z,16.17
2019-05-25T03:27:43.217Z,14.58
2019-05-25T03:30:12.874Z,15.13
2019-05-25T03:32:42.322Z,15.05
2019-05-25T03:35:11.754Z,14.20
2019-05-25T03:37:41.184Z,12.93
2019-05-25T03:40:10.718Z,11.68
2019-05-25T03:42:40.152Z,12.28
2019-05-25T03:45:09.684Z,11.78
2019-05-25T03:47:39.123Z,12.53
2019-05-25T03:50:08.663Z,11.22
2019-05-25T03:52:38.082Z,11.40
2019-05-25T03:55:07.711Z,11.57
2019-05-25T03:57:37.151Z,11.30
2019-05-25T04:00:07.504Z,11.73
2019-05-25T04:02:39.681Z,11.28
2019-05-25T04:05:09.144Z,11.05
2019-05-25T04:07:38.494Z,12.55
2019-05-25T04:10:09.212Z,13.15
2019-05-25T04:12:38.564Z,11.45
2019-05-25T04:15:08.302Z,12.00
2019-05-25T04:17:37.741Z,12.93
2019-05-25T04:20:07.982Z,12.18
2019-05-25T04:22:37.409Z,19.60
2019-05-25T04:25:08.382Z,12.93
2019-05-25T04:27:37.727Z,11.50
2019-05-25T04:30:07.896Z,12.03
2019-05-25T04:32:37.250Z,15.95
2019-05-25T04:35:07.391Z,12.53
2019-05-25T04:37:36.830Z,12.68
2019-05-25T04:40:09.984Z,11.90
2019-05-25T04:42:39.409Z,13.48
2019-05-25T04:45:08.969Z,12.10
2019-05-25T04:47:38.422Z,13.25
2019-05-25T04:50:08.460Z,13.43
2019-05-25T04:52:41.124Z,12.88
2019-05-25T04:55:09.652Z,15.20
2019-05-25T04:57:39.037Z,12.58
2019-05-25T05:00:09.200Z,11.68
2019-05-25T05:02:38.559Z,14.38
2019-05-25T05:05:07.915Z,12.50
2019-05-25T05:07:37.367Z,11.97
2019-05-25T05:10:07.807Z,12.53
2019-05-25T05:12:37.236Z,11.63
2019-05-25T05:15:08.793Z,12.58
2019-05-25T05:17:38.293Z,11.43
2019-05-25T05:20:08.377Z,14.58
2019-05-25T05:22:37.806Z,12.20
2019-05-25T05:25:08.025Z,11.83
2019-05-25T05:27:38.250Z,13.58
2019-05-25T05:30:09.208Z,12.43
2019-05-25T05:32:38.645Z,11.18
2019-05-25T05:35:08.804Z,11.85
2019-05-25T05:37:39.964Z,12.58
2019-05-25T05:40:09.607Z,10.95
2019-05-25T05:42:39.827Z,11.20
2019-05-25T05:45:09.458Z,11.10
2019-05-25T05:47:39.490Z,11.48
2019-05-25T05:50:10.143Z,13.22
2019-05-25T05:52:39.882Z,11.43
2019-05-25T05:55:11.215Z,12.43
2019-05-25T05:57:40.582Z,11.05
2019-05-25T06:00:11.120Z,11.15
2019-05-25T06:02:40.559Z,10.68
2019-05-25T06:05:10.263Z,11.50
2019-05-25T06:07:39.713Z,12.78
2019-05-25T06:10:09.648Z,12.33
2019-05-25T06:12:39.031Z,12.78
2019-05-25T06:15:08.777Z,12.03
2019-05-25T06:17:38.216Z,14.95
2019-05-25T06:20:07.947Z,11.22
2019-05-25T06:22:37.323Z,11.70
2019-05-25T06:25:08.465Z,11.47
2019-05-25T06:27:37.641Z,11.17
2019-05-25T06:30:09.120Z,10.30
2019-05-25T06:32:38.563Z,10.72
2019-05-25T06:35:08.022Z,10.50
2019-05-25T06:37:37.149Z,9.77
2019-05-25T06:40:07.485Z,12.47
2019-05-25T06:42:36.569Z,10.13
2019-05-25T06:45:07.000Z,10.20
2019-05-25T06:47:36.141Z,10.27
2019-05-25T06:50:08.558Z,9.73
2019-05-25T06:52:37.687Z,9.90
2019-05-25T06:55:07.829Z,9.80
2019-05-25T06:57:42.987Z,9.10
2019-05-25T07:00:08.439Z,9.27
2019-05-25T07:02:37.511Z,8.90
2019-05-25T07:05:07.964Z,10.37
2019-05-25T07:07:37.217Z,8.00
2019-05-25T07:10:09.879Z,8.60
2019-05-25T07:12:39.027Z,8.33
2019-05-25T07:15:09.653Z,10.20
2019-05-25T07:17:38.849Z,9.57
2019-05-25T07:20:09.029Z,10.53
2019-05-25T07:22:38.164Z,12.57
2019-05-25T07:25:08.689Z,7.60
2019-05-25T07:27:37.831Z,7.70
2019-05-25T07:30:07.976Z,8.80
2019-05-25T07:32:37.107Z,12.57
2019-05-25T07:35:09.429Z,8.43
2019-05-25T07:37:38.558Z,8.17
2019-05-25T07:40:09.106Z,6.93
2019-05-25T07:42:38.289Z,7.30
2019-05-25T07:45:07.715Z,6.83
2019-05-25T07:47:36.984Z,7.10
2019-05-25T07:50:09.566Z,6.67
2019-05-25T07:52:38.636Z,11.40
2019-05-25T07:55:08.081Z,7.67
2019-05-25T07:57:37.218Z,5.63
2019-05-25T08:00:07.266Z,7.43
2019-05-25T08:02:36.400Z,6.53
2019-05-25T08:05:08.790Z,6.60
2019-05-25T08:07:37.858Z,8.93
2019-05-25T08:10:07.315Z,9.67
2019-05-25T08:12:36.450Z,5.77
2019-05-25T08:15:08.477Z,4.17
2019-05-25T08:17:37.614Z,10.00
2019-05-25T08:20:07.438Z,3.03
2019-05-25T08:22:36.563Z,4.97
2019-05-25T08:25:10.590Z,3.53
2019-05-25T08:27:39.706Z,3.50
2019-05-25T08:30:09.331Z,3.97
2019-05-25T08:32:38.445Z,4.20
2019-05-25T08:35:09.103Z,3.70
2019-05-25T08:37:39.719Z,5.80
2019-05-25T08:40:10.593Z,6.57
2019-05-25T08:42:39.986Z,5.00
2019-05-25T08:45:09.330Z,9.83
2019-05-25T08:47:38.471Z,5.90
2019-05-25T08:50:09.785Z,4.30
2019-05-25T08:52:40.834Z,5.07
2019-05-25T08:55:11.499Z,6.23
2019-05-25T08:57:42.220Z,4.20
2019-05-25T09:00:11.613Z,6.03
2019-05-25T09:02:40.760Z,3.23
2019-05-25T09:05:10.298Z,3.00
2019-05-25T09:07:39.430Z,4.23
2019-05-25T09:10:09.750Z,3.10
2019-05-25T09:12:39.002Z,4.37
2019-05-25T09:15:08.638Z,4.53
2019-05-25T09:17:38.259Z,5.27
2019-05-25T09:20:09.063Z,6.40
2019-05-25T09:22:38.210Z,3.00
2019-05-25T09:25:07.994Z,3.00
2019-05-25T09:30:29.762Z,3.40
2019-05-25T09:32:58.884Z,3.53
2019-05-25T09:35:28.008Z,3.77
2019-05-25T09:37:57.498Z,3.17
2019-05-25T09:40:26.672Z,3.80
2019-05-25T09:42:55.810Z,6.77
2019-05-25T09:45:25.048Z,5.20
2019-05-25T09:47:54.110Z,11.20
2019-05-25T09:50:23.183Z,3.77
2019-05-25T09:52:52.330Z,4.73
2019-05-25T09:55:21.401Z,5.27
2019-05-25T09:57:50.458Z,3.73
2019-05-25T10:00:20.185Z,7.70
2019-05-25T10:02:49.399Z,5.57
2019-05-25T10:05:18.642Z,4.60
2019-05-25T10:07:47.777Z,3.03
2019-05-25T10:10:17.419Z,4.87
2019-05-25T10:12:46.547Z,4.23
2019-05-25T10:15:15.820Z,5.20
2019-05-25T10:17:44.939Z,7.47
2019-05-25T10:20:14.526Z,7.43
2019-05-25T10:22:43.683Z,4.00
2019-05-25T10:25:12.997Z,3.87
2019-05-25T10:27:42.150Z,7.00
2019-05-25T10:30:11.382Z,4.57
2019-05-25T10:32:40.501Z,6.57
2019-05-25T10:35:09.835Z,3.83
2019-05-25T10:37:38.964Z,4.47
2019-05-25T10:40:09.080Z,4.10
2019-05-25T10:42:38.241Z,5.20
2019-05-25T10:45:10.684Z,7.57
2019-05-25T10:47:39.910Z,5.80
2019-05-25T10:50:09.662Z,6.13
2019-05-25T10:52:38.803Z,6.80
2019-05-25T10:55:10.186Z,6.67
2019-05-25T10:57:39.691Z,4.73
2019-05-25T11:00:09.919Z,6.23
2019-05-25T11:02:39.047Z,5.63
2019-05-25T11:05:09.598Z,4.83
2019-05-25T11:07:38.726Z,5.30
2019-05-25T11:10:10.385Z,6.80
2019-05-25T11:12:39.506Z,7.63
2019-05-25T11:15:09.351Z,5.00
2019-05-25T11:17:38.586Z,11.30
2019-05-25T11:20:09.345Z,5.53
2019-05-25T11:22:38.473Z,5.17
2019-05-25T11:25:08.433Z,4.97
2019-05-25T11:27:37.648Z,8.97
2019-05-25T11:30:10.167Z,5.67
2019-05-25T11:32:39.961Z,5.10
2019-05-25T11:35:09.990Z,5.70
2019-05-25T11:37:39.150Z,4.90
2019-05-25T11:40:09.171Z,4.80
2019-05-25T11:42:38.322Z,4.57
2019-05-25T11:45:07.860Z,8.97
2019-05-25T11:47:37.013Z,4.37
2019-05-25T11:50:09.423Z,4.40
2019-05-25T11:52:38.897Z,4.90
2019-05-25T11:55:08.652Z,4.10
2019-05-25T11:57:37.775Z,4.90
2019-05-25T12:00:24.219Z,7.57
2019-05-25T12:02:43.571Z,5.00
2019-05-25T12:05:12.891Z,4.90
2019-05-25T12:07:44.580Z,4.60
2019-05-25T12:10:14.484Z,8.30
2019-05-25T12:12:43.650Z,4.20
2019-05-25T12:15:12.865Z,4.80
2019-05-25T12:17:42.013Z,6.23
2019-05-25T12:20:11.589Z,4.80
2019-05-25T12:22:40.694Z,4.90
2019-05-25T12:25:09.919Z,4.53
2019-05-25T12:27:39.045Z,4.77
2019-05-25T12:30:08.599Z,5.10
2019-05-25T12:32:38.039Z,5.87
2019-05-25T12:35:08.431Z,3.93
2019-05-25T12:37:37.681Z,3.93
2019-05-25T12:40:07.255Z,8.13
2019-05-25T12:42:36.361Z,4.00
2019-05-25T12:45:06.560Z,4.27
2019-05-25T12:47:35.775Z,4.73
2019-05-25T12:50:06.995Z,9.50
2019-05-25T12:52:36.109Z,3.53
2019-05-25T12:55:06.817Z,7.30
2019-05-25T12:57:35.992Z,5.70
2019-05-25T13:00:15.463Z,4.70
2019-05-25T13:02:38.616Z,4.57
2019-05-25T13:05:07.942Z,5.83
2019-05-25T13:07:37.024Z,5.33
2019-05-25T13:10:10.148Z,5.67
2019-05-25T13:12:39.278Z,3.07
2019-05-25T13:15:08.607Z,5.73
2019-05-25T13:17:37.747Z,4.40
2019-05-25T13:20:07.285Z,3.40
2019-05-25T13:22:36.418Z,3.97
2019-05-25T13:25:07.350Z,5.80
2019-05-25T13:27:36.458Z,3.80
2019-05-25T13:30:08.967Z,3.40
2019-05-25T13:32:38.101Z,3.03
2019-05-25T13:35:09.991Z,2.77
2019-05-25T13:37:39.252Z,3.03
2019-05-25T13:40:08.482Z,2.90
2019-05-25T13:42:37.532Z,2.60
2019-05-25T13:45:07.865Z,4.10
2019-05-25T13:47:37.006Z,3.50
2019-05-25T13:50:09.140Z,3.03
2019-05-25T13:52:38.288Z,4.47
2019-05-25T13:55:08.010Z,2.97
2019-05-25T13:57:37.139Z,4.93
2019-05-25T14:00:08.294Z,5.77
2019-05-25T14:02:37.348Z,4.40
2019-05-25T14:05:07.294Z,5.13
2019-05-25T14:07:36.417Z,4.00
2019-05-25T14:10:08.882Z,4.57
2019-05-25T14:12:37.943Z,5.77
2019-05-25T14:15:09.075Z,6.90
2019-05-25T14:17:38.407Z,5.93
2019-05-25T14:20:09.894Z,4.60
2019-05-25T14:22:39.016Z,4.37
2019-05-25T14:25:08.745Z,5.00
2019-05-25T14:27:37.886Z,9.70
2019-05-25T14:30:08.339Z,6.80
2019-05-25T14:32:37.406Z,4.87
2019-05-25T14:35:06.943Z,5.30
2019-05-25T14:37:36.061Z,4.07
2019-05-25T14:40:11.423Z,7.03
2019-05-25T14:42:40.052Z,4.77
2019-05-25T14:45:09.503Z,10.43
2019-05-25T14:47:38.635Z,5.40
2019-05-25T14:50:09.322Z,11.87
2019-05-25T14:52:38.460Z,7.27
2019-05-25T14:55:08.731Z,6.67
2019-05-25T14:57:37.822Z,7.57
2019-05-25T15:00:07.653Z,4.10
2019-05-25T15:02:36.802Z,3.50
2019-05-25T15:05:06.633Z,7.17
2019-05-25T15:07:35.781Z,7.63
2019-05-25T15:10:07.219Z,4.13
2019-05-25T15:12:36.305Z,5.27
2019-05-25T15:15:07.406Z,8.90
2019-05-25T15:17:37.486Z,10.07
2019-05-25T15:20:09.992Z,11.67
2019-05-25T15:22:39.113Z,9.07
2019-05-25T15:25:08.950Z,8.80
2019-05-25T15:27:38.010Z,5.97
2019-05-25T15:30:08.029Z,8.17
2019-05-25T15:32:37.117Z,4.97
2019-05-25T15:35:08.060Z,8.93
2019-05-25T15:37:37.190Z,4.07
2019-05-25T15:40:11.217Z,6.13
2019-05-25T15:42:40.645Z,10.60
2019-05-25T15:45:09.880Z,5.60
2019-05-25T15:47:38.945Z,6.47
2019-05-25T15:50:10.652Z,5.37
2019-05-25T15:52:39.824Z,4.93
2019-05-25T15:55:09.238Z,4.40
2019-05-25T15:57:38.370Z,7.73
2019-05-25T16:00:10.418Z,6.93
2019-05-25T16:02:39.552Z,7.97
2019-05-25T16:05:09.493Z,9.27
2019-05-25T16:07:44.440Z,25.40
2019-05-25T16:10:14.185Z,16.95
2019-05-25T16:12:43.241Z,9.37
2019-05-25T16:15:12.663Z,9.37
2019-05-25T16:17:41.790Z,6.93
2019-05-25T16:20:11.015Z,4.80
2019-05-25T16:22:40.148Z,4.77
2019-05-25T16:25:09.329Z,4.30
2019-05-25T16:27:38.471Z,5.10
2019-05-25T16:30:07.715Z,3.50
2019-05-25T16:33:07.043Z,4.53
2019-05-25T16:35:07.748Z,4.83
2019-05-25T16:37:37.279Z,6.00
2019-05-25T16:40:07.697Z,3.80
2019-05-25T16:42:37.110Z,3.90
2019-05-25T16:45:07.272Z,4.08
2019-05-25T16:47:36.784Z,4.05
2019-05-25T16:50:08.310Z,7.50
2019-05-25T16:52:37.762Z,3.77
2019-05-25T16:55:07.779Z,4.70
2019-05-25T16:57:36.904Z,3.57
2019-05-25T17:00:07.331Z,4.75
2019-05-25T17:02:36.745Z,5.40
2019-05-25T17:05:06.519Z,4.40
2019-05-25T17:07:35.948Z,6.05
2019-05-25T17:10:08.248Z,5.25
2019-05-25T17:12:37.662Z,7.05
2019-05-25T17:15:10.022Z,9.60
2019-05-25T17:17:39.438Z,3.90
2019-05-25T17:20:09.002Z,5.67
2019-05-25T17:22:38.435Z,4.95
2019-05-25T17:25:09.597Z,8.38
2019-05-25T17:27:39.040Z,6.72
2019-05-25T17:30:09.732Z,6.05
2019-05-25T17:32:39.279Z,9.68
2019-05-25T17:35:08.879Z,7.33
2019-05-25T17:37:38.315Z,7.78
2019-05-25T17:40:08.881Z,8.95
2019-05-25T17:42:38.311Z,4.80
2019-05-25T17:45:07.984Z,5.55
2019-05-25T17:47:37.338Z,7.95
2019-05-25T17:50:08.260Z,6.65
2019-05-25T17:52:37.692Z,5.00
2019-05-25T17:55:07.935Z,6.08
2019-05-25T17:57:37.364Z,5.90
2019-05-25T18:00:08.677Z,5.70
2019-05-25T18:02:38.174Z,8.28
2019-05-25T18:05:08.891Z,5.55
2019-05-25T18:07:38.931Z,5.58
2019-05-25T18:10:08.965Z,10.78
2019-05-25T18:12:38.491Z,7.15
2019-05-25T18:15:10.833Z,7.58
2019-05-25T18:17:40.252Z,7.15
2019-05-25T18:20:10.904Z,8.80
2019-05-25T18:22:40.388Z,6.22
2019-05-25T18:25:09.808Z,8.53
2019-05-25T18:27:39.233Z,8.08
2019-05-25T18:30:10.383Z,8.70
2019-05-25T18:32:39.827Z,11.38
2019-05-25T18:35:09.355Z,9.45
2019-05-25T18:37:38.832Z,8.58
2019-05-25T18:40:10.873Z,9.58
2019-05-25T18:42:40.383Z,6.83
2019-05-25T18:45:10.245Z,8.38
2019-05-25T18:47:39.674Z,10.05
2019-05-25T18:50:10.617Z,5.28
2019-05-25T18:52:40.055Z,7.22
2019-05-25T18:55:09.998Z,6.62
2019-05-25T18:57:39.416Z,7.28
2019-05-25T19:00:09.814Z,7.08
2019-05-25T19:02:39.359Z,4.83
2019-05-25T19:05:09.299Z,5.45
2019-05-25T19:07:38.723Z,7.30
2019-05-25T19:10:09.445Z,5.45
2019-05-25T19:12:38.885Z,5.67
2019-05-25T19:15:09.894Z,6.15
2019-05-25T19:17:39.333Z,6.97
2019-05-25T19:20:09.861Z,5.17
2019-05-25T19:22:39.298Z,5.50
2019-05-25T19:25:11.786Z,6.00
2019-05-25T19:27:41.235Z,5.62
2019-05-25T19:30:11.680Z,6.35
2019-05-25T19:32:41.129Z,7.62
2019-05-25T19:35:11.954Z,7.72
2019-05-25T19:37:42.505Z,7.95
2019-05-25T19:40:12.516Z,11.70
2019-05-25T19:42:41.956Z,13.28
2019-05-25T19:45:11.693Z,8.95
2019-05-25T19:47:41.068Z,13.65
2019-05-25T19:50:10.739Z,11.08
2019-05-25T19:52:40.167Z,11.90
2019-05-25T19:55:09.814Z,12.63
2019-05-25T19:57:39.257Z,8.75
2019-05-25T20:00:09.813Z,7.08
2019-05-25T20:02:39.228Z,6.90
2019-05-25T20:05:16.195Z,7.60
2019-05-25T20:07:40.613Z,10.50
2019-05-25T20:10:11.937Z,8.78
2019-05-25T20:12:41.363Z,9.55
2019-05-25T20:15:10.778Z,8.05
2019-05-25T20:17:40.210Z,9.50
2019-05-25T20:20:10.033Z,10.00
2019-05-25T20:22:39.462Z,13.68
2019-05-25T20:25:09.197Z,7.50
2019-05-25T20:27:38.535Z,8.23
2019-05-25T20:30:08.972Z,9.38
2019-05-25T20:32:38.394Z,7.80
2019-05-25T20:35:08.122Z,6.80
2019-05-25T20:37:37.546Z,9.70
2019-05-25T20:40:08.616Z,10.60
2019-05-25T20:42:38.114Z,7.12
2019-05-25T20:45:10.361Z,8.18
2019-05-25T20:47:39.718Z,11.30
2019-05-25T20:50:09.561Z,7.47
2019-05-25T20:52:39.006Z,7.47
2019-05-25T20:55:09.045Z,7.95
2019-05-25T20:57:38.455Z,8.48
2019-05-25T21:00:09.480Z,7.92
2019-05-25T21:02:38.883Z,11.97
2019-05-25T21:05:08.410Z,8.60
2019-05-25T21:07:37.823Z,9.53
2019-05-25T21:10:08.110Z,10.15
2019-05-25T21:12:37.549Z,9.53
2019-05-25T21:15:09.067Z,8.68
2019-05-25T21:17:38.477Z,8.35
2019-05-25T21:20:08.806Z,8.90
2019-05-25T21:22:38.231Z,9.18
2019-05-25T21:25:08.855Z,8.55
2019-05-25T21:27:38.267Z,10.63
2019-05-25T21:30:08.887Z,8.95
2019-05-25T21:32:38.240Z,7.05
2019-05-25T21:35:08.468Z,10.43
2019-05-25T21:37:37.880Z,7.55
2019-05-25T21:40:09.071Z,9.05
2019-05-25T21:42:38.494Z,8.50
2019-05-25T21:45:08.543Z,9.48
2019-05-25T21:47:37.954Z,8.33
2019-05-25T21:50:07.475Z,8.80
2019-05-25T21:52:37.109Z,8.58
2019-05-25T21:55:06.825Z,9.78
2019-05-25T21:57:36.190Z,8.88
2019-05-25T22:00:08.836Z,9.60
2019-05-25T22:02:38.243Z,10.18
2019-05-25T22:05:07.887Z,10.23
2019-05-25T22:07:37.314Z,10.78
2019-05-25T22:10:06.831Z,9.18
2019-05-25T22:12:36.263Z,10.58
2019-05-25T22:15:08.581Z,11.15
2019-05-25T22:17:38.102Z,9.55
2019-05-25T22:20:08.382Z,11.85
2019-05-25T22:22:37.733Z,9.33
2019-05-25T22:25:07.470Z,9.78
2019-05-25T22:27:36.904Z,12.37
2019-05-25T22:30:07.935Z,9.28
2019-05-25T22:32:37.351Z,8.83
2019-05-25T22:35:08.019Z,8.68
2019-05-25T22:37:37.422Z,7.45
2019-05-25T22:40:08.718Z,7.90
2019-05-25T22:42:38.130Z,9.75
2019-05-25T22:45:07.795Z,7.72
2019-05-25T22:47:37.152Z,10.25
2019-05-25T22:50:06.967Z,7.75
2019-05-25T22:52:36.504Z,10.90
2019-05-25T22:55:07.499Z,7.72
2019-05-25T22:57:36.928Z,7.97
2019-05-25T23:00:11.291Z,8.35
2019-05-25T23:02:40.712Z,7.47
2019-05-25T23:05:10.122Z,8.88
2019-05-25T23:07:39.542Z,8.85
2019-05-25T23:10:09.463Z,9.88
2019-05-25T23:12:38.988Z,7.15
2019-05-25T23:15:09.254Z,7.20
2019-05-25T23:17:38.675Z,11.20
2019-05-25T23:20:08.497Z,9.38
2019-05-25T23:22:38.020Z,7.25
2019-05-25T23:25:07.560Z,6.80
2019-05-25T23:27:36.961Z,6.92
2019-05-25T23:30:07.386Z,6.62
2019-05-25T23:32:36.802Z,6.75
2019-05-25T23:35:06.550Z,9.05
2019-05-25T23:37:35.911Z,6.78
2019-05-25T23:40:09.335Z,6.85
2019-05-25T23:42:38.797Z,10.18
2019-05-25T23:45:08.646Z,6.87
2019-05-25T23:47:38.055Z,7.17
2019-05-25T23:50:08.668Z,9.83
2019-05-25T23:52:38.163Z,7.10
2019-05-25T23:55:07.769Z,7.58
2019-05-25T23:57:37.192Z,9.38
